createdAt,value
2023-03-30T00:01:01.326Z,100200.69
2023-03-30T00:04:05.396Z,100194.91
2023-03-30T00:07:11.859Z,100198.22
2023-03-30T00:10:19.337Z,100208.28
2023-03-30T00:13:23.444Z,100201.03
2023-03-30T00:16:27.665Z,100199.03
2023-03-30T00:19:31.569Z,100198.50
2023-03-30T00:22:36.964Z,100198.91
2023-03-30T00:25:40.851Z,100200.56
2023-03-30T00:28:44.752Z,100192.75
2023-03-30T00:31:48.613Z,100197.72
2023-03-30T00:34:52.262Z,100203.31
2023-03-30T00:37:57.548Z,100189.66
2023-03-30T00:41:02.908Z,100199.38
2023-03-30T00:44:09.700Z,100193.19
2023-03-30T00:47:13.762Z,100196.22
2023-03-30T00:50:22.149Z,100187.75
2023-03-30T00:53:30.361Z,100183.50
2023-03-30T00:56:34.915Z,100185.41
2023-03-30T00:59:38.842Z,100185.91
2023-03-30T01:02:48.953Z,100191.31
2023-03-30T01:05:54.045Z,100198.06
2023-03-30T01:09:00.048Z,100188.69
2023-03-30T01:12:05.612Z,100194.88
2023-03-30T01:15:11.003Z,100194.88
2023-03-30T01:18:26.462Z,100192.69
2023-03-30T01:22:04.911Z,100194.47
2023-03-30T01:25:41.022Z,100194.88
2023-03-30T01:28:54.074Z,100188.97
2023-03-30T01:32:22.060Z,100182.94
2023-03-30T01:35:49.349Z,100192.19
2023-03-30T01:39:29.293Z,100193.63
2023-03-30T01:42:40.709Z,100196.94
2023-03-30T01:45:47.483Z,100207.13
2023-03-30T01:48:59.823Z,100207.19
2023-03-30T01:52:07.148Z,100209.13
2023-03-30T01:55:18.290Z,100205.63
2023-03-30T01:58:27.608Z,100200.84
2023-03-30T02:01:34.261Z,100194.13
2023-03-30T02:04:42.117Z,100197.19
2023-03-30T02:07:51.167Z,100198.63
2023-03-30T02:10:58.826Z,100200.97
2023-03-30T02:14:05.822Z,100202.06
2023-03-30T02:17:17.449Z,100203.56
2023-03-30T02:20:21.408Z,100203.34
2023-03-30T02:23:30.342Z,100201.75
2023-03-30T02:26:36.980Z,100199.31
2023-03-30T02:29:44.902Z,100210.00
2023-03-30T02:32:51.215Z,100206.28
2023-03-30T02:36:12.577Z,100216.06
2023-03-30T02:39:31.844Z,100217.66
2023-03-30T02:42:56.588Z,100213.78
2023-03-30T02:46:15.644Z,100220.47
2023-03-30T02:49:27.343Z,100230.84
2023-03-30T02:52:45.185Z,100231.59
2023-03-30T02:56:00.804Z,100227.91
2023-03-30T02:59:22.162Z,100238.63
2023-03-30T03:02:32.385Z,100238.59
2023-03-30T03:05:48.864Z,100232.78
2023-03-30T03:08:55.091Z,100227.09
2023-03-30T03:12:02.491Z,100224.38
2023-03-30T03:15:14.324Z,100237.09
2023-03-30T03:18:35.329Z,100230.28
2023-03-30T03:21:39.567Z,100228.44
2023-03-30T03:24:45.173Z,100232.81
2023-03-30T03:27:51.914Z,100232.16
2023-03-30T03:31:02.983Z,100227.03
2023-03-30T03:34:07.262Z,100235.22
2023-03-30T03:37:31.404Z,100240.44
2023-03-30T03:40:35.175Z,100247.44
2023-03-30T03:43:38.979Z,100253.47
2023-03-30T03:46:44.582Z,100249.44
2023-03-30T03:49:48.333Z,100261.81
2023-03-30T03:52:52.225Z,100267.44
2023-03-30T03:55:56.420Z,100261.22
2023-03-30T03:59:03.057Z,100267.53
2023-03-30T04:02:08.257Z,100279.41
2023-03-30T04:05:12.316Z,100266.94
2023-03-30T04:08:18.156Z,100269.84
2023-03-30T04:11:22.725Z,100266.31
2023-03-30T04:15:01.819Z,100277.00
2023-03-30T04:18:36.475Z,100271.44
2023-03-30T04:21:50.954Z,100274.50
2023-03-30T04:25:15.189Z,100270.44
2023-03-30T04:28:40.416Z,100283.88
2023-03-30T04:32:03.902Z,100290.31
2023-03-30T04:35:35.852Z,100285.72
2023-03-30T04:39:01.698Z,100296.28
2023-03-30T04:42:30.680Z,100296.81
2023-03-30T04:45:57.295Z,100299.59
2023-03-30T04:49:13.402Z,100301.81
2023-03-30T04:52:38.926Z,100303.25
2023-03-30T04:56:09.238Z,100305.69
2023-03-30T04:59:38.862Z,100315.66
2023-03-30T05:02:43.328Z,100312.47
2023-03-30T05:06:11.711Z,100316.38
2023-03-30T05:09:42.935Z,100319.38
2023-03-30T05:13:02.119Z,100317.28
2023-03-30T05:16:23.946Z,100315.97
2023-03-30T05:19:46.949Z,100323.56
2023-03-30T05:22:58.777Z,100334.13
2023-03-30T05:26:22.566Z,100329.31
2023-03-30T05:29:44.947Z,100335.78
2023-03-30T05:33:03.581Z,100334.56
2023-03-30T05:36:26.867Z,100336.97
2023-03-30T05:39:42.826Z,100344.75
2023-03-30T05:42:48.164Z,100335.22
2023-03-30T05:46:12.340Z,100335.13
2023-03-30T05:49:22.505Z,100337.03
2023-03-30T05:52:37.925Z,100331.84
2023-03-30T05:55:55.807Z,100328.94
2023-03-30T05:59:19.585Z,100324.81
2023-03-30T06:02:40.632Z,100320.88
2023-03-30T06:05:50.065Z,100339.81
2023-03-30T06:08:53.984Z,100340.47
2023-03-30T06:12:01.526Z,100341.94
2023-03-30T06:15:10.637Z,100348.56
2023-03-30T06:18:28.131Z,100346.00
2023-03-30T06:21:38.005Z,100355.50
2023-03-30T06:24:58.312Z,100352.25
2023-03-30T06:28:02.925Z,100350.84
2023-03-30T06:31:12.419Z,100365.41
2023-03-30T06:34:18.967Z,100358.78
2023-03-30T06:37:23.384Z,100365.31
2023-03-30T06:40:27.964Z,100358.75
2023-03-30T06:43:33.543Z,100352.63
2023-03-30T06:46:47.323Z,100356.72
2023-03-30T06:49:51.304Z,100359.84
2023-03-30T06:53:15.703Z,100348.75
2023-03-30T06:56:22.903Z,100357.47
2023-03-30T06:59:47.243Z,100354.78
2023-03-30T07:02:58.463Z,100356.34
2023-03-30T07:06:17.186Z,100348.78
2023-03-30T07:09:23.123Z,100348.97
2023-03-30T07:12:27.590Z,100348.16
2023-03-30T07:15:31.785Z,100350.94
2023-03-30T07:18:37.265Z,100341.66
2023-03-30T07:21:41.965Z,100350.94
2023-03-30T07:24:48.966Z,100343.78
2023-03-30T07:27:52.990Z,100344.22
2023-03-30T07:31:06.812Z,100344.03
2023-03-30T07:34:13.766Z,100341.00
2023-03-30T07:37:23.796Z,100345.16
2023-03-30T07:40:27.889Z,100348.47
2023-03-30T07:43:32.744Z,100350.56
2023-03-30T07:46:38.027Z,100344.72
2023-03-30T07:49:44.145Z,100348.63
2023-03-30T07:52:49.583Z,100342.56
2023-03-30T07:55:53.594Z,100344.88
2023-03-30T07:59:05.791Z,100335.13
2023-03-30T08:02:15.233Z,100341.41
2023-03-30T08:05:27.628Z,100340.28
2023-03-30T08:08:43.786Z,100339.66
2023-03-30T08:11:48.824Z,100339.78
2023-03-30T08:14:53.303Z,100336.66
2023-03-30T08:17:57.896Z,100334.00
2023-03-30T08:21:03.558Z,100330.84
2023-03-30T08:24:09.103Z,100328.22
2023-03-30T08:27:13.044Z,100326.75
2023-03-30T08:30:17.806Z,100319.66
2023-03-30T08:33:23.348Z,100323.28
2023-03-30T08:36:28.847Z,100316.28
2023-03-30T08:39:33.584Z,100314.69
2023-03-30T08:43:05.128Z,100299.47
2023-03-30T08:46:14.115Z,100296.94
2023-03-30T08:49:21.262Z,100296.75
2023-03-30T08:52:27.015Z,100295.09
2023-03-30T08:55:36.728Z,100287.53
2023-03-30T08:58:47.046Z,100288.34
2023-03-30T09:01:55.827Z,100282.69
2023-03-30T09:05:03.694Z,100281.91
2023-03-30T09:08:14.983Z,100272.63
2023-03-30T09:11:31.696Z,100271.69
2023-03-30T09:14:39.064Z,100264.44
2023-03-30T09:17:47.147Z,100256.66
2023-03-30T09:20:53.863Z,100253.03
2023-03-30T09:24:02.327Z,100256.03
2023-03-30T09:27:11.346Z,100255.16
2023-03-30T09:30:21.623Z,100255.44
2023-03-30T09:33:32.931Z,100246.47
2023-03-30T09:36:41.283Z,100239.19
2023-03-30T09:39:47.584Z,100234.84
2023-03-30T09:43:00.792Z,100233.22
2023-03-30T09:46:08.381Z,100233.72
2023-03-30T09:49:17.049Z,100229.22
2023-03-30T09:52:23.462Z,100225.47
2023-03-30T09:55:34.023Z,100224.66
2023-03-30T09:58:38.645Z,100215.53
2023-03-30T10:01:42.902Z,100216.81
2023-03-30T10:05:04.524Z,100203.72
2023-03-30T10:08:24.448Z,100195.91
2023-03-30T10:11:37.445Z,100191.44
2023-03-30T10:14:41.828Z,100189.09
2023-03-30T10:17:48.509Z,100178.03
2023-03-30T10:20:54.577Z,100181.41
2023-03-30T10:24:08.446Z,100177.91
2023-03-30T10:27:16.072Z,100175.78
2023-03-30T10:30:23.829Z,100164.97
2023-03-30T10:33:28.584Z,100169.69
2023-03-30T10:36:35.817Z,100165.56
2023-03-30T10:39:43.591Z,100161.78
2023-03-30T10:42:53.213Z,100162.81
2023-03-30T10:46:06.363Z,100158.44
2023-03-30T10:49:34.245Z,100147.53
2023-03-30T10:52:58.035Z,100148.94
2023-03-30T10:56:11.548Z,100144.66
2023-03-30T10:59:39.025Z,100133.84
2023-03-30T11:02:58.823Z,100122.09
2023-03-30T11:06:08.545Z,100116.84
2023-03-30T11:09:17.424Z,100114.28
2023-03-30T11:12:23.610Z,100109.03
2023-03-30T11:15:34.884Z,100102.44
2023-03-30T11:18:45.002Z,100094.72
2023-03-30T11:21:57.189Z,100075.22
2023-03-30T11:25:01.186Z,100069.75
2023-03-30T11:28:16.164Z,100070.56
2023-03-30T11:35:07.527Z,100057.19
2023-03-30T11:38:16.531Z,100062.25
2023-03-30T11:41:28.971Z,100053.56
2023-03-30T11:44:33.686Z,100050.59
2023-03-30T11:48:03.780Z,100043.38
2023-03-30T11:51:22.309Z,100038.44
2023-03-30T11:55:01.855Z,100038.38
2023-03-30T11:58:17.046Z,100040.44
2023-03-30T12:01:40.011Z,100029.19
2023-03-30T12:04:51.480Z,100031.13
2023-03-30T12:08:04.847Z,100013.91
2023-03-30T12:11:18.543Z,100018.22
2023-03-30T12:15:04.063Z,100012.75
2023-03-30T12:18:15.646Z,100002.81
2023-03-30T12:21:33.042Z,99990.66
2023-03-30T12:24:44.612Z,99986.94
2023-03-30T12:28:12.527Z,99987.41
2023-03-30T12:31:17.666Z,99984.91
2023-03-30T12:34:23.408Z,99975.84
2023-03-30T12:37:35.252Z,99966.00
2023-03-30T12:40:39.264Z,99976.78
2023-03-30T12:44:22.086Z,99964.66
2023-03-30T12:47:54.871Z,99967.22
2023-03-30T12:51:09.292Z,99962.88
2023-03-30T12:54:34.390Z,99961.19
2023-03-30T12:58:02.070Z,99959.00
2023-03-30T13:01:29.272Z,99951.81
2023-03-30T13:04:38.853Z,99949.06
2023-03-30T13:07:44.297Z,99946.69
2023-03-30T13:10:49.869Z,99935.19
2023-03-30T13:13:57.471Z,99927.19
2023-03-30T13:17:12.926Z,99918.03
2023-03-30T13:20:29.943Z,99909.72
2023-03-30T13:23:35.188Z,99910.28
2023-03-30T13:26:45.965Z,99903.44
2023-03-30T13:29:54.104Z,99896.47
2023-03-30T13:33:13.124Z,99896.50
2023-03-30T13:36:19.982Z,99885.28
2023-03-30T13:39:31.047Z,99879.41
2023-03-30T13:42:49.485Z,99869.81
2023-03-30T13:46:13.756Z,99870.31
2023-03-30T13:49:41.908Z,99859.81
2023-03-30T13:52:48.243Z,99854.88
2023-03-30T13:55:52.547Z,99856.84
2023-03-30T13:59:04.647Z,99857.75
2023-03-30T14:02:14.192Z,99859.50
2023-03-30T14:05:22.418Z,99847.16
2023-03-30T14:08:26.602Z,99843.81
2023-03-30T14:11:35.164Z,99830.66
2023-03-30T14:14:47.170Z,99839.94
2023-03-30T14:17:53.699Z,99824.63
2023-03-30T14:20:59.989Z,99824.81
2023-03-30T14:24:05.663Z,99822.19
2023-03-30T14:27:15.080Z,99825.28
2023-03-30T14:30:24.930Z,99827.75
2023-03-30T14:33:28.899Z,99812.13
2023-03-30T14:36:32.812Z,99815.13
2023-03-30T14:39:41.386Z,99806.25
2023-03-30T14:42:45.369Z,99811.09
2023-03-30T14:45:51.444Z,99813.34
2023-03-30T14:48:56.368Z,99812.03
2023-03-30T14:52:05.182Z,99808.63
2023-03-30T14:55:17.575Z,99814.72
2023-03-30T14:58:22.815Z,99807.19
2023-03-30T15:01:31.641Z,99808.25
2023-03-30T15:04:38.719Z,99810.00
2023-03-30T15:07:42.610Z,99811.44
2023-03-30T15:10:50.927Z,99812.19
2023-03-30T15:13:58.019Z,99810.38
2023-03-30T15:17:10.680Z,99817.47
2023-03-30T15:20:15.888Z,99815.84
2023-03-30T15:23:20.031Z,99810.19
2023-03-30T15:26:23.940Z,99810.63
2023-03-30T15:29:28.047Z,99805.88
2023-03-30T15:32:36.557Z,99809.47
2023-03-30T15:35:40.638Z,99816.38
2023-03-30T15:38:48.898Z,99820.94
2023-03-30T15:42:01.513Z,99818.41
2023-03-30T15:45:10.968Z,99817.28
2023-03-30T15:48:20.136Z,99821.34
2023-03-30T15:51:28.763Z,99823.16
2023-03-30T15:54:35.844Z,99813.78
2023-03-30T15:57:45.037Z,99821.69
2023-03-30T16:00:49.837Z,99813.84
2023-03-30T16:03:58.355Z,99811.03
2023-03-30T16:07:02.346Z,99806.25
2023-03-30T16:10:07.082Z,99804.66
2023-03-30T16:13:12.938Z,99807.16
2023-03-30T16:16:18.847Z,99810.28
2023-03-30T16:19:24.251Z,99803.31
2023-03-30T16:22:28.149Z,99807.53
2023-03-30T16:25:44.236Z,99795.63
2023-03-30T16:28:52.574Z,99785.06
2023-03-30T16:31:56.688Z,99780.63
2023-03-30T16:35:02.232Z,99778.06
2023-03-30T16:38:06.290Z,99776.50
2023-03-30T16:41:14.243Z,99766.44
2023-03-30T16:44:18.622Z,99773.13
2023-03-30T16:47:22.765Z,99763.22
2023-03-30T16:50:36.262Z,99769.66
2023-03-30T16:53:40.711Z,99768.97
2023-03-30T16:56:44.662Z,99768.94
2023-03-30T16:59:48.608Z,99765.69
2023-03-30T17:02:52.526Z,99764.72
2023-03-30T17:05:58.014Z,99770.84
2023-03-30T17:09:01.867Z,99764.75
2023-03-30T17:12:06.062Z,99763.25
2023-03-30T17:15:11.285Z,99756.72
2023-03-30T17:18:17.320Z,99757.38
2023-03-30T17:21:23.222Z,99760.03
2023-03-30T17:24:27.041Z,99755.63
2023-03-30T17:27:31.027Z,99758.41
2023-03-30T17:30:37.004Z,99760.19
2023-03-30T17:33:41.008Z,99765.25
2023-03-30T17:36:46.630Z,99765.78
2023-03-30T17:39:50.469Z,99775.13
2023-03-30T17:42:54.922Z,99774.47
2023-03-30T17:45:58.893Z,99784.31
2023-03-30T17:49:02.699Z,99785.28
2023-03-30T17:52:08.108Z,99791.53
2023-03-30T17:55:11.929Z,99791.72
2023-03-30T17:58:19.042Z,99781.88
2023-03-30T18:01:23.085Z,99794.03
2023-03-30T18:04:28.024Z,99796.78
2023-03-30T18:07:33.779Z,99795.16
2023-03-30T18:10:40.185Z,99797.63
2023-03-30T18:13:44.124Z,99808.78
2023-03-30T18:16:50.038Z,99797.63
2023-03-30T18:19:54.325Z,99806.19
2023-03-30T18:22:59.946Z,99804.84
2023-03-30T18:26:08.316Z,99794.00
2023-03-30T18:29:20.532Z,99788.28
2023-03-30T18:32:29.182Z,99784.16
2023-03-30T18:35:41.313Z,99784.97
2023-03-30T18:38:46.662Z,99781.38
2023-03-30T18:41:50.764Z,99782.19
2023-03-30T18:44:54.810Z,99784.50
2023-03-30T18:48:00.360Z,99785.97
2023-03-30T18:51:04.381Z,99787.63
2023-03-30T18:54:09.760Z,99785.22
2023-03-30T18:57:13.678Z,99769.00
2023-03-30T19:00:21.725Z,99772.78
2023-03-30T19:03:27.571Z,99770.16
2023-03-30T19:06:32.661Z,99774.19
2023-03-30T19:09:43.052Z,99767.88
2023-03-30T19:12:49.263Z,99771.78
2023-03-30T19:15:53.861Z,99769.16
2023-03-30T19:18:57.704Z,99768.31
2023-03-30T19:22:01.527Z,99761.81
2023-03-30T19:25:08.304Z,99758.47
2023-03-30T19:28:12.545Z,99757.34
2023-03-30T19:31:16.930Z,99760.03
2023-03-30T19:34:21.023Z,99753.97
2023-03-30T19:37:25.444Z,99752.38
2023-03-30T19:40:30.877Z,99757.03
2023-03-30T19:43:34.711Z,99755.91
2023-03-30T19:46:39.082Z,99752.16
2023-03-30T19:49:43.105Z,99757.41
2023-03-30T19:52:50.308Z,99758.34
2023-03-30T19:55:55.805Z,99758.69
2023-03-30T19:59:00.305Z,99755.44
2023-03-30T20:02:04.267Z,99752.81
2023-03-30T20:05:10.487Z,99744.94
2023-03-30T20:08:23.209Z,99742.78
2023-03-30T20:11:29.846Z,99742.06
2023-03-30T20:14:34.345Z,99746.63
2023-03-30T20:17:39.066Z,99749.94
2023-03-30T20:20:43.033Z,99744.63
2023-03-30T20:23:46.888Z,99745.31
2023-03-30T20:26:52.372Z,99740.81
2023-03-30T20:29:56.290Z,99747.56
2023-03-30T20:33:07.738Z,99748.19
2023-03-30T20:36:12.747Z,99757.50
2023-03-30T20:39:16.567Z,99752.09
2023-03-30T20:42:26.535Z,99740.88
2023-03-30T20:45:31.055Z,99735.59
2023-03-30T20:48:39.485Z,99741.56
2023-03-30T20:51:45.391Z,99734.25
2023-03-30T20:54:49.700Z,99743.66
2023-03-30T20:57:55.189Z,99745.03
2023-03-30T21:01:01.987Z,99745.53
2023-03-30T21:04:06.192Z,99757.50
2023-03-30T21:07:10.778Z,99747.56
2023-03-30T21:10:16.617Z,99757.63
2023-03-30T21:13:22.101Z,99758.53
2023-03-30T21:16:26.830Z,99767.13
2023-03-30T21:19:30.710Z,99764.72
2023-03-30T21:22:34.469Z,99747.69
2023-03-30T21:25:38.329Z,99749.81
2023-03-30T21:28:43.568Z,99728.19
2023-03-30T21:31:47.486Z,99720.66
2023-03-30T21:34:51.480Z,99716.81
2023-03-30T21:37:55.390Z,99714.81
2023-03-30T21:41:01.602Z,99716.25
2023-03-30T21:44:07.389Z,99719.38
2023-03-30T21:47:15.304Z,99728.38
2023-03-30T21:50:19.330Z,99730.81
2023-03-30T21:53:23.067Z,99737.41
2023-03-30T21:56:29.555Z,99727.06
2023-03-30T21:59:35.165Z,99717.13
2023-03-30T22:02:38.868Z,99711.06
2023-03-30T22:05:43.489Z,99703.97
2023-03-30T22:08:48.102Z,99714.56
2023-03-30T22:11:54.329Z,99717.19
2023-03-30T22:14:59.690Z,99705.41
2023-03-30T22:18:05.213Z,99718.25
2023-03-30T22:21:13.252Z,99715.56
2023-03-30T22:24:18.668Z,99715.41
2023-03-30T22:27:22.498Z,99714.00
2023-03-30T22:30:27.888Z,99716.41
2023-03-30T22:33:31.789Z,99719.81
2023-03-30T22:36:36.085Z,99715.78
2023-03-30T22:39:40.064Z,99705.53
2023-03-30T22:42:43.907Z,99710.63
2023-03-30T22:45:49.470Z,99708.25
2023-03-30T22:48:56.074Z,99702.41
2023-03-30T22:52:02.550Z,99702.84
2023-03-30T22:55:06.935Z,99693.44
2023-03-30T22:58:12.182Z,99688.94
2023-03-30T23:01:17.565Z,99679.88
2023-03-30T23:04:21.488Z,99680.53
2023-03-30T23:07:25.412Z,99669.25
2023-03-30T23:10:34.069Z,99674.56
2023-03-30T23:13:42.330Z,99675.88
2023-03-30T23:16:47.881Z,99673.66
2023-03-30T23:19:54.260Z,99669.38
2023-03-30T23:22:58.159Z,99664.72
2023-03-30T23:26:09.522Z,99668.59
2023-03-30T23:29:13.839Z,99666.38
2023-03-30T23:32:19.099Z,99667.88
2023-03-30T23:35:22.978Z,99661.91
2023-03-30T23:38:26.741Z,99660.66
2023-03-30T23:41:30.400Z,99652.81
2023-03-30T23:44:34.483Z,99658.78
2023-03-30T23:47:39.710Z,99656.09
2023-03-30T23:50:43.614Z,99655.56
2023-03-30T23:53:47.473Z,99654.72
2023-03-30T23:56:57.315Z,99659.88
